createdAt,value
2022-09-13T00:01:48.730Z,12.86
2022-09-13T00:04:18.803Z,12.88
2022-09-13T00:06:48.894Z,12.85
2022-09-13T00:09:20.827Z,12.71
2022-09-13T00:11:55.055Z,12.41
2022-09-13T00:14:26.896Z,12.39
2022-09-13T00:16:57.110Z,12.30
2022-09-13T00:19:27.235Z,12.46
2022-09-13T00:21:57.468Z,12.51
2022-09-13T00:24:27.877Z,12.50
2022-09-13T00:27:00.682Z,12.39
2022-09-13T00:29:30.963Z,12.26
2022-09-13T00:32:01.226Z,12.32
2022-09-13T00:34:32.048Z,12.35
2022-09-13T00:37:02.256Z,12.28
2022-09-13T00:39:33.312Z,12.33
2022-09-13T00:42:06.742Z,12.34
2022-09-13T00:45:04.385Z,12.27
2022-09-13T00:47:40.784Z,12.37
2022-09-13T00:50:16.471Z,12.37
2022-09-13T00:52:51.519Z,12.49
2022-09-13T00:55:25.569Z,12.24
2022-09-13T00:58:02.173Z,12.27
2022-09-13T01:00:33.282Z,12.33
2022-09-13T01:03:09.189Z,12.46
2022-09-13T01:05:42.127Z,12.18
2022-09-13T01:08:22.616Z,12.01
2022-09-13T01:10:55.786Z,12.12
2022-09-13T01:13:32.317Z,12.23
2022-09-13T01:16:03.496Z,12.02
2022-09-13T01:18:33.854Z,11.77
2022-09-13T01:21:31.423Z,11.77
2022-09-13T01:24:32.448Z,11.98
2022-09-13T01:27:22.443Z,12.04
2022-09-13T01:30:18.706Z,11.86
2022-09-13T01:33:13.194Z,11.76
2022-09-13T01:35:57.277Z,11.72
2022-09-13T01:38:51.190Z,11.72
2022-09-13T01:41:51.112Z,11.82
2022-09-13T01:44:31.465Z,11.94
2022-09-13T01:47:10.583Z,11.99
2022-09-13T01:49:49.453Z,12.02
2022-09-13T01:52:28.512Z,11.97
2022-09-13T01:55:09.089Z,11.68
2022-09-13T01:57:46.854Z,11.64
2022-09-13T02:00:19.899Z,11.78
2022-09-13T02:02:57.306Z,11.54
2022-09-13T02:05:35.427Z,11.22
2022-09-13T02:08:11.674Z,11.13
2022-09-13T02:10:45.982Z,10.97
2022-09-13T02:13:21.248Z,10.77
2022-09-13T02:15:56.468Z,10.86
2022-09-13T02:18:35.245Z,10.67
2022-09-13T02:21:10.702Z,10.57
2022-09-13T02:23:45.446Z,10.59
2022-09-13T02:26:18.561Z,10.48
2022-09-13T02:28:55.361Z,10.69
2022-09-13T02:31:31.276Z,10.61
2022-09-13T02:34:07.701Z,10.63
2022-09-13T02:36:42.511Z,10.51
2022-09-13T02:39:16.747Z,10.26
2022-09-13T02:41:56.188Z,10.46
2022-09-13T02:44:32.226Z,10.23
2022-09-13T02:47:17.426Z,10.59
2022-09-13T02:49:58.912Z,9.65
2022-09-13T02:52:40.226Z,10.13
2022-09-13T02:55:19.806Z,9.95
2022-09-13T02:58:02.773Z,9.92
2022-09-13T03:00:34.009Z,10.05
2022-09-13T03:03:08.843Z,10.07
2022-09-13T03:05:41.588Z,10.12
2022-09-13T03:08:14.575Z,10.43
2022-09-13T03:10:55.260Z,10.41
2022-09-13T03:13:43.702Z,10.40
2022-09-13T03:16:30.844Z,10.13
2022-09-13T03:19:17.733Z,10.15
2022-09-13T03:22:06.996Z,10.26
2022-09-13T03:24:51.016Z,10.12
2022-09-13T03:27:26.599Z,10.02
2022-09-13T03:30:02.942Z,10.47
2022-09-13T03:32:41.597Z,10.32
2022-09-13T03:35:20.609Z,10.16
2022-09-13T03:38:01.171Z,10.32
2022-09-13T03:40:43.073Z,9.99
2022-09-13T03:43:19.108Z,9.95
2022-09-13T03:45:55.069Z,9.80
2022-09-13T03:48:27.643Z,9.63
2022-09-13T03:50:58.298Z,9.71
2022-09-13T03:53:33.893Z,9.98
2022-09-13T03:56:04.208Z,9.80
2022-09-13T03:58:34.248Z,9.86
2022-09-13T04:01:05.118Z,9.58
2022-09-13T04:03:35.623Z,9.51
2022-09-13T04:06:05.978Z,9.56
2022-09-13T04:08:39.429Z,9.34
2022-09-13T04:11:09.754Z,9.33
2022-09-13T04:13:41.665Z,9.24
2022-09-13T04:16:12.380Z,9.32
2022-09-13T04:18:42.652Z,9.40
2022-09-13T04:21:12.867Z,9.26
2022-09-13T04:23:45.571Z,9.20
2022-09-13T04:26:15.842Z,9.12
2022-09-13T04:28:46.233Z,8.91
2022-09-13T04:31:16.695Z,8.93
2022-09-13T04:33:46.899Z,9.00
2022-09-13T04:36:16.926Z,9.01
2022-09-13T04:38:50.078Z,9.13
2022-09-13T04:41:20.397Z,9.66
2022-09-13T04:43:53.497Z,9.62
2022-09-13T04:46:24.177Z,9.56
2022-09-13T04:48:55.050Z,9.58
2022-09-13T04:51:25.335Z,9.67
2022-09-13T04:54:00.488Z,9.57
2022-09-13T04:56:31.026Z,9.55
2022-09-13T04:59:01.142Z,9.56
2022-09-13T05:01:31.617Z,9.71
2022-09-13T05:04:02.112Z,9.76
2022-09-13T05:06:32.942Z,9.83
2022-09-13T05:09:06.731Z,9.83
2022-09-13T05:11:37.280Z,9.99
2022-09-13T05:14:07.556Z,10.03
2022-09-13T05:16:38.223Z,9.94
2022-09-13T05:19:08.289Z,10.03
2022-09-13T05:21:38.766Z,10.15
2022-09-13T05:24:12.087Z,10.21
2022-09-13T05:26:42.411Z,10.20
2022-09-13T05:29:12.681Z,10.34
2022-09-13T05:31:45.856Z,10.44
2022-09-13T05:34:18.685Z,10.42
2022-09-13T05:36:54.052Z,10.51
2022-09-13T05:39:53.973Z,10.54
2022-09-13T05:42:18.309Z,10.62
2022-09-13T05:44:48.594Z,10.73
2022-09-13T05:47:19.193Z,10.82
2022-09-13T05:50:08.930Z,10.87
2022-09-13T05:52:39.322Z,11.00
2022-09-13T05:55:12.677Z,11.17
2022-09-13T05:57:42.967Z,11.21
2022-09-13T06:00:14.803Z,11.32
2022-09-13T06:02:45.238Z,11.39
2022-09-13T06:05:15.490Z,11.45
2022-09-13T06:07:46.755Z,11.64
2022-09-13T06:10:20.464Z,11.80
2022-09-13T06:12:50.428Z,11.92
2022-09-13T06:15:21.011Z,12.01
2022-09-13T06:17:51.139Z,12.16
2022-09-13T06:20:21.394Z,12.37
2022-09-13T06:22:51.925Z,12.64
2022-09-13T06:25:25.142Z,12.97
2022-09-13T06:27:55.377Z,13.21
2022-09-13T06:30:26.252Z,13.33
2022-09-13T06:32:59.164Z,13.44
2022-09-13T06:35:29.400Z,13.62
2022-09-13T06:38:00.183Z,13.93
2022-09-13T06:40:32.951Z,14.23
2022-09-13T06:43:03.131Z,14.34
2022-09-13T06:45:33.822Z,14.48
2022-09-13T06:48:05.695Z,14.92
2022-09-13T06:50:35.744Z,15.21
2022-09-13T06:53:06.065Z,15.66
2022-09-13T06:55:39.139Z,15.86
2022-09-13T06:58:09.544Z,15.86
2022-09-13T07:00:42.182Z,15.87
2022-09-13T07:03:12.622Z,16.22
2022-09-13T07:05:42.678Z,16.27
2022-09-13T07:08:12.811Z,16.39
2022-09-13T07:10:45.967Z,16.44
2022-09-13T07:13:16.500Z,16.51
2022-09-13T07:15:46.865Z,16.78
2022-09-13T07:18:17.214Z,17.12
2022-09-13T07:20:47.547Z,17.32
2022-09-13T07:23:17.682Z,17.16
2022-09-13T07:26:02.256Z,17.55
2022-09-13T07:28:35.421Z,17.78
2022-09-13T07:31:11.993Z,17.93
2022-09-13T07:33:44.156Z,18.23
2022-09-13T07:36:15.491Z,17.67
2022-09-13T07:38:48.435Z,18.01
2022-09-13T07:41:23.980Z,18.13
2022-09-13T07:43:54.982Z,18.43
2022-09-13T07:46:26.544Z,18.33
2022-09-13T07:48:59.705Z,18.73
2022-09-13T07:51:31.680Z,18.91
2022-09-13T07:54:05.106Z,18.88
2022-09-13T07:56:39.310Z,18.82
2022-09-13T07:59:13.514Z,18.97
2022-09-13T08:01:46.034Z,19.13
2022-09-13T08:04:19.076Z,19.64
2022-09-13T08:06:50.283Z,19.24
2022-09-13T08:09:21.204Z,19.33
2022-09-13T08:11:55.118Z,19.50
2022-09-13T08:14:26.751Z,19.26
2022-09-13T08:16:58.994Z,19.15
2022-09-13T08:19:29.524Z,19.50
2022-09-13T08:21:59.918Z,19.92
2022-09-13T08:24:30.371Z,19.83
2022-09-13T08:27:03.739Z,20.04
2022-09-13T08:29:33.918Z,19.98
2022-09-13T08:32:05.020Z,20.24
2022-09-13T08:34:35.824Z,20.21
2022-09-13T08:37:06.268Z,19.99
2022-09-13T08:39:37.082Z,20.25
2022-09-13T08:42:32.974Z,20.70
2022-09-13T08:45:09.990Z,20.71
2022-09-13T08:47:48.079Z,20.63
2022-09-13T08:50:24.255Z,21.26
2022-09-13T08:53:20.987Z,20.76
2022-09-13T08:55:58.695Z,21.07
2022-09-13T08:59:06.609Z,20.91
2022-09-13T09:01:54.483Z,20.78
2022-09-13T09:04:39.289Z,20.76
2022-09-13T09:07:15.095Z,20.34
2022-09-13T09:09:49.898Z,20.36
2022-09-13T09:12:27.387Z,21.00
2022-09-13T09:15:08.009Z,21.11
2022-09-13T09:17:49.379Z,21.31
2022-09-13T09:20:28.011Z,21.12
2022-09-13T09:22:59.762Z,20.86
2022-09-13T09:25:30.280Z,21.40
2022-09-13T09:28:02.754Z,21.48
2022-09-13T09:30:43.764Z,21.16
2022-09-13T09:33:37.597Z,21.24
2022-09-13T09:36:14.493Z,21.34
2022-09-13T09:38:47.370Z,21.27
2022-09-13T09:41:26.307Z,21.92
2022-09-13T09:44:03.611Z,22.93
2022-09-13T09:46:42.876Z,22.93
2022-09-13T09:49:31.773Z,22.50
2022-09-13T09:52:06.813Z,22.71
2022-09-13T09:54:39.292Z,22.91
2022-09-13T09:57:12.826Z,23.14
2022-09-13T09:59:43.947Z,22.38
2022-09-13T10:02:23.220Z,22.72
2022-09-13T10:05:07.263Z,23.23
2022-09-13T10:07:38.147Z,23.09
2022-09-13T10:10:12.783Z,22.85
2022-09-13T10:12:43.943Z,22.73
2022-09-13T10:15:21.428Z,23.01
2022-09-13T10:18:26.371Z,22.46
2022-09-13T10:21:06.865Z,22.89
2022-09-13T10:23:38.199Z,22.85
2022-09-13T10:26:12.414Z,23.22
2022-09-13T10:28:49.202Z,23.27
2022-09-13T10:31:21.722Z,23.51
2022-09-13T10:34:01.801Z,23.37
2022-09-13T10:36:51.569Z,23.22
2022-09-13T10:39:25.230Z,23.59
2022-09-13T10:41:59.585Z,23.78
2022-09-13T10:44:35.061Z,23.65
2022-09-13T10:47:10.287Z,23.80
2022-09-13T10:49:49.357Z,24.10
2022-09-13T10:52:37.038Z,23.73
2022-09-13T10:55:37.885Z,23.64
2022-09-13T10:58:17.831Z,23.99
2022-09-13T11:01:38.203Z,23.92
2022-09-13T11:04:40.185Z,24.15
2022-09-13T11:07:40.445Z,24.04
2022-09-13T11:10:20.085Z,24.40
2022-09-13T11:12:58.502Z,24.51
2022-09-13T11:15:46.751Z,23.98
2022-09-13T11:18:32.150Z,23.02
2022-09-13T11:21:27.803Z,22.98
2022-09-13T11:24:21.991Z,23.48
2022-09-13T11:27:01.786Z,23.24
2022-09-13T11:29:49.470Z,23.50
2022-09-13T11:32:37.597Z,23.82
2022-09-13T11:35:24.323Z,23.94
2022-09-13T11:38:06.313Z,23.96
2022-09-13T11:40:50.461Z,24.20
2022-09-13T11:43:38.103Z,23.39
2022-09-13T11:46:18.162Z,23.08
2022-09-13T11:49:06.874Z,23.30
2022-09-13T11:51:51.968Z,22.66
2022-09-13T11:54:48.663Z,23.30
2022-09-13T11:57:25.135Z,24.05
2022-09-13T12:00:02.445Z,23.57
2022-09-13T12:02:43.866Z,23.65
2022-09-13T12:05:23.229Z,23.85
2022-09-13T12:07:59.915Z,24.16
2022-09-13T12:10:37.782Z,24.38
2022-09-13T12:13:12.635Z,23.88
2022-09-13T12:15:46.103Z,24.15
2022-09-13T12:18:23.026Z,24.06
2022-09-13T12:20:56.915Z,23.77
2022-09-13T12:23:33.321Z,23.91
2022-09-13T12:26:12.222Z,23.75
2022-09-13T12:28:49.665Z,23.77
2022-09-13T12:31:23.596Z,23.40
2022-09-13T12:33:54.252Z,23.27
2022-09-13T12:36:50.656Z,23.22
2022-09-13T12:39:37.398Z,23.36
2022-09-13T12:42:28.938Z,23.43
2022-09-13T12:45:14.189Z,23.34
2022-09-13T12:48:00.194Z,23.77
2022-09-13T12:50:55.193Z,24.20
2022-09-13T12:53:52.931Z,24.42
2022-09-13T12:56:57.467Z,24.57
2022-09-13T13:00:08.451Z,23.75
2022-09-13T13:02:43.261Z,23.91
2022-09-13T13:05:28.099Z,24.23
2022-09-13T13:08:03.043Z,24.56
2022-09-13T13:10:37.870Z,24.52
2022-09-13T13:13:16.638Z,24.33
2022-09-13T13:16:09.485Z,24.18
2022-09-13T13:18:52.802Z,23.93
2022-09-13T13:21:36.890Z,24.03
2022-09-13T13:24:36.877Z,23.99
2022-09-13T13:27:37.758Z,24.21
2022-09-13T13:30:43.879Z,23.92
2022-09-13T13:33:23.248Z,23.96
2022-09-13T13:36:06.889Z,23.45
2022-09-13T13:38:44.845Z,23.29
2022-09-13T13:41:43.683Z,24.23
2022-09-13T13:44:44.129Z,24.51
2022-09-13T13:47:59.720Z,24.05
2022-09-13T13:50:36.234Z,24.51
2022-09-13T13:53:26.116Z,24.10
2022-09-13T13:56:18.842Z,24.02
2022-09-13T13:58:54.213Z,23.87
2022-09-13T14:01:27.553Z,23.87
2022-09-13T14:04:35.331Z,24.14
2022-09-13T14:07:19.891Z,23.92
2022-09-13T14:09:59.563Z,23.47
2022-09-13T14:12:40.880Z,23.73
2022-09-13T14:15:24.733Z,23.99
2022-09-13T14:18:30.892Z,23.72
2022-09-13T14:21:05.651Z,24.00
2022-09-13T14:23:39.112Z,23.86
2022-09-13T14:26:10.371Z,23.98
2022-09-13T14:28:41.042Z,23.75
2022-09-13T14:31:20.812Z,23.98
2022-09-13T14:33:51.405Z,23.75
2022-09-13T14:36:24.291Z,23.87
2022-09-13T14:39:01.804Z,23.79
2022-09-13T14:41:37.829Z,23.89
2022-09-13T14:44:28.346Z,23.57
2022-09-13T14:47:07.455Z,23.70
2022-09-13T14:49:47.288Z,23.71
2022-09-13T14:52:26.035Z,23.53
2022-09-13T14:55:04.607Z,23.43
2022-09-13T14:57:38.238Z,23.39
2022-09-13T15:00:12.700Z,23.36
2022-09-13T15:02:43.821Z,23.42
2022-09-13T15:05:17.901Z,23.54
2022-09-13T15:07:48.349Z,23.28
2022-09-13T15:10:30.413Z,23.27
2022-09-13T15:13:11.764Z,23.27
2022-09-13T15:15:43.319Z,23.09
2022-09-13T15:18:29.434Z,23.18
2022-09-13T15:21:04.245Z,22.93
2022-09-13T15:23:36.718Z,22.99
2022-09-13T15:26:13.134Z,22.98
2022-09-13T15:28:54.290Z,23.01
2022-09-13T15:31:26.319Z,23.04
2022-09-13T15:34:14.822Z,22.89
2022-09-13T15:36:45.194Z,22.83
2022-09-13T15:39:20.359Z,22.78
2022-09-13T15:42:01.475Z,22.63
2022-09-13T15:44:36.899Z,22.63
2022-09-13T15:47:14.061Z,22.64
2022-09-13T15:49:49.848Z,22.43
2022-09-13T15:52:21.975Z,22.41
2022-09-13T15:54:54.382Z,22.41
2022-09-13T15:57:30.225Z,22.27
2022-09-13T16:00:05.546Z,22.24
2022-09-13T16:02:39.986Z,22.20
2022-09-13T16:05:12.353Z,22.07
2022-09-13T16:07:43.737Z,21.96
2022-09-13T16:10:17.910Z,21.89
2022-09-13T16:12:51.830Z,21.96
2022-09-13T16:15:22.808Z,21.94
2022-09-13T16:17:53.279Z,21.82
2022-09-13T16:20:23.932Z,21.83
2022-09-13T16:22:54.450Z,21.75
2022-09-13T16:25:25.322Z,21.61
2022-09-13T16:27:59.452Z,21.48
2022-09-13T16:30:33.439Z,21.40
2022-09-13T16:33:04.153Z,21.31
2022-09-13T16:35:35.316Z,21.21
2022-09-13T16:38:05.908Z,21.09
2022-09-13T16:40:36.574Z,20.98
2022-09-13T16:43:10.150Z,20.90
2022-09-13T16:45:43.536Z,20.83
2022-09-13T16:48:14.252Z,20.75
2022-09-13T16:50:45.286Z,20.55
2022-09-13T16:53:15.718Z,20.46
2022-09-13T16:55:47.906Z,20.39
2022-09-13T16:58:21.196Z,20.35
2022-09-13T17:00:51.893Z,20.13
2022-09-13T17:03:22.181Z,20.03
2022-09-13T17:06:01.872Z,20.06
2022-09-13T17:08:33.530Z,20.00
2022-09-13T17:11:08.033Z,20.02
2022-09-13T17:13:42.146Z,19.89
2022-09-13T17:16:25.198Z,19.59
2022-09-13T17:18:56.032Z,19.49
2022-09-13T17:21:26.817Z,19.53
2022-09-13T17:23:57.248Z,19.48
2022-09-13T17:26:27.404Z,19.13
2022-09-13T17:29:00.498Z,19.09
2022-09-13T17:31:30.929Z,18.93
2022-09-13T17:34:01.269Z,18.74
2022-09-13T17:36:31.384Z,18.62
2022-09-13T17:39:02.224Z,18.82
2022-09-13T17:41:32.497Z,18.86
2022-09-13T17:44:06.025Z,18.79
2022-09-13T17:46:36.757Z,18.77
2022-09-13T17:49:07.601Z,18.81
2022-09-13T17:51:38.093Z,18.73
2022-09-13T17:54:11.278Z,18.61
2022-09-13T17:56:43.545Z,18.52
2022-09-13T17:59:18.180Z,18.53
2022-09-13T18:01:50.357Z,18.56
2022-09-13T18:04:22.462Z,18.52
2022-09-13T18:06:56.066Z,18.47
2022-09-13T18:09:27.598Z,18.26
2022-09-13T18:11:57.839Z,18.24
2022-09-13T18:14:30.635Z,17.94
2022-09-13T18:17:01.665Z,17.80
2022-09-13T18:19:45.787Z,17.72
2022-09-13T18:22:17.068Z,17.76
2022-09-13T18:24:47.182Z,17.80
2022-09-13T18:27:17.570Z,17.87
2022-09-13T18:29:50.662Z,17.79
2022-09-13T18:32:21.162Z,17.46
2022-09-13T18:34:51.314Z,17.51
2022-09-13T18:37:21.487Z,17.46
2022-09-13T18:39:51.827Z,17.20
2022-09-13T18:42:22.028Z,17.13
2022-09-13T18:44:54.740Z,17.13
2022-09-13T18:47:25.101Z,16.90
2022-09-13T18:49:55.412Z,16.90
2022-09-13T18:52:25.684Z,16.75
2022-09-13T18:54:55.976Z,16.84
2022-09-13T18:57:26.256Z,16.73
2022-09-13T18:59:59.939Z,16.93
2022-09-13T19:02:30.265Z,16.76
2022-09-13T19:05:03.289Z,16.68
2022-09-13T19:07:36.178Z,16.62
2022-09-13T19:10:06.607Z,16.60
2022-09-13T19:12:37.313Z,16.76
2022-09-13T19:15:12.949Z,16.70
2022-09-13T19:17:43.529Z,16.55
2022-09-13T19:20:13.992Z,16.64
2022-09-13T19:22:47.243Z,16.48
2022-09-13T19:25:17.375Z,16.58
2022-09-13T19:27:47.647Z,16.50
2022-09-13T19:30:20.929Z,16.63
2022-09-13T19:32:51.253Z,16.46
2022-09-13T19:35:22.214Z,16.43
2022-09-13T19:37:52.578Z,16.40
2022-09-13T19:40:23.184Z,16.38
2022-09-13T19:42:54.158Z,16.66
2022-09-13T19:45:27.471Z,16.49
2022-09-13T19:48:37.584Z,16.49
2022-09-13T19:50:48.407Z,16.36
2022-09-13T19:53:18.630Z,16.44
2022-09-13T19:55:50.320Z,16.43
2022-09-13T19:58:21.316Z,16.45
2022-09-13T20:01:04.175Z,16.45
2022-09-13T20:03:34.843Z,16.46
2022-09-13T20:06:05.245Z,16.48
2022-09-13T20:08:36.769Z,16.55
2022-09-13T20:11:10.119Z,16.64
2022-09-13T20:13:40.927Z,16.66
2022-09-13T20:16:18.486Z,16.67
2022-09-13T20:18:48.858Z,16.67
2022-09-13T20:21:20.569Z,16.79
2022-09-13T20:23:50.686Z,16.80
2022-09-13T20:26:22.796Z,16.87
2022-09-13T20:28:56.664Z,16.86
2022-09-13T20:31:30.409Z,16.90
2022-09-13T20:34:02.315Z,16.86
2022-09-13T20:36:36.981Z,16.95
2022-09-13T20:39:08.330Z,16.91
2022-09-13T20:41:38.528Z,16.92
2022-09-13T20:44:08.832Z,16.90
2022-09-13T20:46:43.175Z,16.89
2022-09-13T20:49:14.906Z,16.87
2022-09-13T20:51:46.169Z,16.88
2022-09-13T20:54:17.760Z,16.87
2022-09-13T20:56:48.494Z,16.86
2022-09-13T20:59:18.747Z,16.86
2022-09-13T21:01:52.233Z,16.85
2022-09-13T21:04:22.780Z,16.86
2022-09-13T21:07:05.263Z,16.86
2022-09-13T21:09:35.544Z,16.92
2022-09-13T21:12:07.450Z,16.90
2022-09-13T21:14:37.621Z,16.88
2022-09-13T21:17:10.700Z,16.91
2022-09-13T21:19:40.927Z,16.92
2022-09-13T21:22:11.565Z,16.91
2022-09-13T21:24:41.706Z,16.91
2022-09-13T21:27:12.126Z,16.89
2022-09-13T21:29:42.324Z,16.90
2022-09-13T21:32:15.395Z,16.93
2022-09-13T21:34:45.714Z,16.96
2022-09-13T21:37:15.836Z,16.94
2022-09-13T21:39:46.077Z,16.95
2022-09-13T21:42:17.187Z,16.96
2022-09-13T21:44:47.229Z,16.95
2022-09-13T21:47:20.122Z,17.00
2022-09-13T21:49:51.386Z,17.00
2022-09-13T21:52:21.688Z,16.99
2022-09-13T21:54:51.914Z,16.98
2022-09-13T21:57:22.937Z,17.00
2022-09-13T21:59:54.035Z,17.03
2022-09-13T22:02:26.996Z,17.20
2022-09-13T22:04:57.044Z,17.15
2022-09-13T22:07:27.412Z,17.18
2022-09-13T22:09:57.509Z,17.13
2022-09-13T22:12:27.849Z,17.13
2022-09-13T22:14:57.896Z,17.13
2022-09-13T22:17:30.905Z,17.19
2022-09-13T22:20:01.024Z,17.27
2022-09-13T22:22:31.090Z,17.16
2022-09-13T22:25:01.449Z,17.08
2022-09-13T22:27:31.653Z,17.09
2022-09-13T22:30:01.717Z,17.01
2022-09-13T22:32:34.531Z,17.00
2022-09-13T22:35:04.853Z,16.98
2022-09-13T22:37:35.023Z,16.94
2022-09-13T22:40:05.914Z,16.91
2022-09-13T22:42:36.144Z,16.88
2022-09-13T22:45:08.286Z,16.91
2022-09-13T22:47:41.320Z,17.03
2022-09-13T22:50:12.610Z,16.95
2022-09-13T22:52:42.703Z,16.87
2022-09-13T22:55:13.003Z,16.80
2022-09-13T22:57:43.582Z,16.81
2022-09-13T23:00:15.713Z,16.71
2022-09-13T23:02:48.561Z,16.63
2022-09-13T23:05:18.963Z,16.55
2022-09-13T23:07:49.193Z,16.50
2022-09-13T23:10:19.338Z,16.52
2022-09-13T23:12:49.433Z,16.46
2022-09-13T23:15:21.116Z,16.39
2022-09-13T23:17:54.069Z,16.33
2022-09-13T23:20:24.262Z,16.28
2022-09-13T23:22:54.364Z,16.21
2022-09-13T23:25:24.462Z,16.17
2022-09-13T23:27:54.920Z,16.16
2022-09-13T23:30:26.861Z,16.14
2022-09-13T23:33:00.557Z,16.11
2022-09-13T23:35:30.841Z,16.16
2022-09-13T23:38:01.351Z,16.07
2022-09-13T23:40:32.197Z,16.10
2022-09-13T23:43:02.651Z,16.01
2022-09-13T23:45:33.054Z,16.04
2022-09-13T23:48:06.435Z,16.01
2022-09-13T23:50:36.801Z,15.97
2022-09-13T23:53:07.143Z,16.03
2022-09-13T23:55:37.290Z,16.02
2022-09-13T23:58:07.528Z,15.99
